LFMT 181530Z AUTO 28006KT 9999 ///TCU 25/18 Q1011 TEMPO SHRA FEW025 FEW030CB BKN040 BECMG 32015G25KT

ElémentsDécodage
LFMT Station météo située sur l'aérodrome de MONTPELLIER Méditerranée
181530Z émis le 18 du mois à 15h30 UTC
AUTO Bulletin édité par un automate
28006KT vent du 280°, 06 noeuds
9999 visibilité horizontale supérieure à 10 Km
///TCU élement non décodé
25/18 température 25°C, point de rosée 18°C
 soit une humidité relative de 65%
Q1011 la pression au niveau de la mer (QNH) est de 1011 hPa
TEMPO fluctuation temporaire prévue
SHRA averse(s) de pluie
FEW025 nuages rares (1/8 à 2/8) à 2500 pieds
FEW030CB nuages rares (1/8 à 2/8) à 3000 pieds
 présence de cumulonimbus
BKN040 nuages morcelés (5/8 à 7/8) à 4000 pieds
BECMG fluctuation du temps prévue
32015G25KT vent du 320°, moyenne: 15 noeuds, avec rafales à 25 noeuds